This is the latest recevied weather packets stored in our database for station/object W1REE. If no packets are shown the sender has not sent any weather packets the latest 10 day(s).
| Time | Temp. | Humidity | Pressure | Rain* | Wind** | Luminosity | Snow |
|---|---|---|---|---|---|---|---|
| 1778095225 | 1.67° C | 84% | 1020.7 hPa | 0 mm | - | 196 W/m² | - |
| 1778094922 | 2.78° C | 82% | 1021 hPa | 1.78 mm | - | 108 W/m² | - |
| 1778094618 | 3.33° C | 79% | 1020.8 hPa | 3.05 mm | - | 253 W/m² | - |
| 1778094315 | 3.33° C | 80% | 1021 hPa | 4.32 mm | - | 462 W/m² | - |
| 1778094013 | 2.78° C | 83% | 1021 hPa | 4.83 mm | - | 652 W/m² | - |
| 1778093710 | 2.22° C | 83% | 1021 hPa | 1.78 mm | - | 443 W/m² | - |
| 1778093406 | 2.22° C | 80% | 1020.8 hPa | 0 mm | - | 650 W/m² | - |
| 1778093103 | 1.67° C | 85% | 1021.1 hPa | 1.27 mm | - | 481 W/m² | - |
| 1778092800 | 1.67° C | 82% | 1021.1 hPa | 1.27 mm | - | 250 W/m² | - |
| 1778092496 | 1.67° C | 84% | 1021.1 hPa | 0 mm | - | 211 W/m² | - |
| 1778092193 | 1.67° C | 82% | 1021.3 hPa | 1.78 mm | - | 191 W/m² | - |
| 1778091890 | 2.22° C | 79% | 1021.3 hPa | 1.78 mm | - | 267 W/m² | - |
| 1778091587 | 2.22° C | 80% | 1021.4 hPa | 1.78 mm | - | 263 W/m² | - |
| 1778091285 | 2.22° C | 82% | 1021.3 hPa | 3.05 mm | - | 296 W/m² | - |
| 1778090982 | 2.22° C | 83% | 1021.3 hPa | 1.27 mm | - | 279 W/m² | - |
| 1778090678 | 1.67° C | 85% | 1021.4 hPa | 1.78 mm | - | 241 W/m² | - |
| 1778090375 | 1.67° C | 85% | 1021.3 hPa | 1.78 mm | - | 180 W/m² | - |
| 1778090072 | 1.11° C | 89% | 1021.3 hPa | 1.78 mm | - | 228 W/m² | - |
| 1778089768 | 0.56° C | 88% | 1021.4 hPa | 0 mm | - | 154 W/m² | - |
| 1778089466 | 0.56° C | 90% | 1021.2 hPa | 0 mm | - | 160 W/m² | - |
| 1778089163 | 0° C | 90% | 1021.3 hPa | 0 mm | - | 113 W/m² | - |
| 1778088860 | 0° C | 93% | 1021.3 hPa | 0 mm | - | 96 W/m² | - |
| 1778088557 | 0° C | 93% | 1021.2 hPa | 0 mm | - | 93 W/m² | - |
| 1778088254 | 0° C | 92% | 1021.2 hPa | 0 mm | - | 86 W/m² | - |
| 1778087951 | 0° C | 92% | 1021.1 hPa | 1.27 mm | - | 74 W/m² | - |
* Rain latest hour (hover to see other rain measurements)
** Current wind speed in m/s (hover to see current wind gust speed)